createdAt,value
2017-04-10T00:00:23.830Z,7.83
2017-04-10T00:01:23.671Z,7.78
2017-04-10T00:02:23.691Z,7.74
2017-04-10T00:03:23.771Z,7.73
2017-04-10T00:04:23.759Z,7.73
2017-04-10T00:05:23.783Z,7.73
2017-04-10T00:06:23.815Z,7.67
2017-04-10T00:07:23.842Z,7.73
2017-04-10T00:08:23.879Z,7.7
2017-04-10T00:09:23.868Z,7.67
2017-04-10T00:10:23.939Z,7.73
2017-04-10T00:11:23.960Z,7.61
2017-04-10T00:12:23.991Z,7.7
2017-04-10T00:13:24.007Z,7.63
2017-04-10T00:14:24.063Z,7.61
2017-04-10T00:15:24.071Z,7.64
2017-04-10T00:16:24.110Z,7.54
2017-04-10T00:17:24.131Z,7.45
2017-04-10T00:18:24.175Z,7.4
2017-04-10T00:19:24.186Z,7.39
2017-04-10T00:20:24.214Z,7.37
2017-04-10T00:21:24.265Z,7.4
2017-04-10T00:22:24.286Z,7.48
2017-04-10T00:23:24.333Z,7.41
2017-04-10T00:24:24.375Z,7.39
2017-04-10T00:25:24.742Z,7.44
2017-04-10T00:26:24.422Z,7.4
2017-04-10T00:27:24.438Z,7.3
2017-04-10T00:28:24.471Z,7.39
2017-04-10T00:29:24.482Z,7.37
2017-04-10T00:30:24.826Z,7.49
2017-04-10T00:31:24.558Z,7.41
2017-04-10T00:32:24.589Z,7.48
2017-04-10T00:33:24.608Z,7.37
2017-04-10T00:34:24.657Z,7.33
2017-04-10T00:35:24.817Z,7.33
2017-04-10T00:36:24.700Z,7.3
2017-04-10T00:37:24.736Z,7.26
2017-04-10T00:38:24.762Z,7.31
2017-04-10T00:39:24.773Z,7.31
2017-04-10T00:40:24.826Z,7.34
2017-04-10T00:41:24.841Z,7.3
2017-04-10T00:42:24.841Z,7.37
2017-04-10T00:43:24.896Z,7.3
2017-04-10T00:44:24.957Z,7.36
2017-04-10T00:45:24.974Z,7.37
2017-04-10T00:46:24.999Z,7.31
2017-04-10T00:47:25.034Z,7.3
2017-04-10T00:48:25.056Z,7.3
2017-04-10T00:49:25.083Z,7.29
2017-04-10T00:50:25.114Z,7.3
2017-04-10T00:51:25.133Z,7.3
2017-04-10T00:52:25.173Z,7.26
2017-04-10T00:53:25.193Z,7.3
2017-04-10T00:54:25.222Z,7.3
2017-04-10T00:55:25.271Z,7.27
2017-04-10T00:56:25.284Z,7.31
2017-04-10T00:57:25.320Z,7.26
2017-04-10T00:58:25.345Z,7.29
2017-04-10T00:59:25.381Z,7.3
2017-04-10T01:00:25.402Z,7.29
2017-04-10T01:01:25.423Z,7.23
2017-04-10T01:02:25.469Z,7.27
2017-04-10T01:03:25.493Z,7.19
2017-04-10T01:04:25.495Z,7.16
2017-04-10T01:05:25.553Z,7.3
2017-04-10T01:06:25.780Z,7.18
2017-04-10T01:07:25.616Z,7.15
2017-04-10T01:08:25.698Z,7.19
2017-04-10T01:09:25.667Z,7.15
2017-04-10T01:10:25.730Z,7.18
2017-04-10T01:11:25.723Z,7.13
2017-04-10T01:12:25.762Z,7.22
2017-04-10T01:13:25.795Z,7.13
2017-04-10T01:14:25.819Z,7.13
2017-04-10T01:15:25.842Z,7.15
2017-04-10T01:16:25.874Z,7.04
2017-04-10T01:17:25.903Z,7.05
2017-04-10T01:18:25.935Z,7.11
2017-04-10T01:19:25.970Z,7.11
2017-04-10T01:20:25.965Z,7.11
2017-04-10T01:21:26.015Z,7.08
2017-04-10T01:22:26.047Z,7.05
2017-04-10T01:23:26.073Z,7.12
2017-04-10T01:24:26.102Z,7.05
2017-04-10T01:25:26.139Z,7.09
2017-04-10T01:26:26.171Z,7.13
2017-04-10T01:27:26.210Z,7.12
2017-04-10T01:28:26.227Z,7.15
2017-04-10T01:29:26.275Z,7.08
2017-04-10T01:30:26.286Z,7.18
2017-04-10T01:31:26.317Z,7.09
2017-04-10T01:32:26.317Z,7.03
2017-04-10T01:33:26.366Z,7.09
2017-04-10T01:34:26.397Z,7.08
2017-04-10T01:35:26.410Z,7.04
2017-04-10T01:36:26.462Z,7.04
2017-04-10T01:37:26.489Z,6.93
2017-04-10T01:38:26.511Z,7.01
2017-04-10T01:39:26.539Z,7.05
2017-04-10T01:40:26.582Z,6.94
2017-04-10T01:41:26.582Z,6.97
2017-04-10T01:42:26.628Z,6.98
2017-04-10T01:43:26.651Z,7.01
2017-04-10T01:44:26.682Z,6.97
2017-04-10T01:45:26.712Z,6.97
2017-04-10T01:46:26.729Z,7.01
2017-04-10T01:47:26.783Z,6.9
2017-04-10T01:48:26.781Z,6.88
2017-04-10T01:49:26.807Z,6.8
2017-04-10T01:50:26.859Z,6.72
2017-04-10T01:51:26.879Z,6.72
2017-04-10T01:52:26.907Z,6.73
2017-04-10T01:53:26.943Z,6.64
2017-04-10T01:54:26.981Z,6.76
2017-04-10T01:55:27.009Z,6.7
2017-04-10T01:56:27.037Z,6.79
2017-04-10T01:57:27.044Z,6.75
2017-04-10T01:58:27.071Z,6.79
2017-04-10T01:59:27.129Z,6.68
2017-04-10T02:00:27.154Z,6.65
2017-04-10T02:01:27.194Z,6.6
2017-04-10T02:02:27.209Z,6.6
2017-04-10T02:03:27.231Z,6.58
2017-04-10T02:04:27.308Z,6.57
2017-04-10T02:05:27.275Z,6.47
2017-04-10T02:06:27.319Z,6.54
2017-04-10T02:07:27.359Z,6.52
2017-04-10T02:08:27.382Z,6.52
2017-04-10T02:09:27.383Z,6.51
2017-04-10T02:10:27.419Z,6.54
2017-04-10T02:11:27.466Z,6.47
2017-04-10T02:12:27.495Z,6.49
2017-04-10T02:13:27.533Z,6.47
2017-04-10T02:14:27.563Z,6.57
2017-04-10T02:15:27.585Z,6.51
2017-04-10T02:16:27.605Z,6.52
2017-04-10T02:17:27.635Z,6.52
2017-04-10T02:18:27.674Z,6.47
2017-04-10T02:19:27.692Z,6.55
2017-04-10T02:20:27.715Z,6.47
2017-04-10T02:21:27.762Z,6.52
2017-04-10T02:22:27.792Z,6.54
2017-04-10T02:23:27.784Z,6.51
2017-04-10T02:24:27.843Z,6.51
2017-04-10T02:25:27.966Z,6.57
2017-04-10T02:26:27.894Z,6.64
2017-04-10T02:27:27.968Z,6.6
2017-04-10T02:28:27.960Z,6.6
2017-04-10T02:29:27.975Z,6.64
2017-04-10T02:30:28.024Z,6.67
2017-04-10T02:31:28.043Z,6.6
2017-04-10T02:32:28.065Z,6.65
2017-04-10T02:33:28.099Z,6.72
2017-04-10T02:34:28.112Z,6.79
2017-04-10T02:35:28.305Z,6.7
2017-04-10T02:36:28.194Z,6.7
2017-04-10T02:37:28.223Z,6.8
2017-04-10T02:38:28.242Z,6.75
2017-04-10T02:39:28.262Z,6.79
2017-04-10T02:40:28.284Z,6.93
2017-04-10T02:41:28.313Z,6.91
2017-04-10T02:42:28.360Z,6.91
2017-04-10T02:43:28.373Z,6.93
2017-04-10T02:44:28.413Z,6.86
2017-04-10T02:45:28.425Z,6.93
2017-04-10T02:46:28.474Z,6.93
2017-04-10T02:47:28.509Z,7
2017-04-10T02:48:28.532Z,6.98
2017-04-10T02:49:28.563Z,6.9
2017-04-10T02:50:28.579Z,7.03
2017-04-10T02:51:28.633Z,7
2017-04-10T02:52:28.612Z,7.01
2017-04-10T02:53:28.671Z,7.01
2017-04-10T02:54:28.704Z,6.95
2017-04-10T02:55:28.726Z,7.03
2017-04-10T02:56:28.761Z,6.95
2017-04-10T02:57:28.791Z,7.04
2017-04-10T02:58:28.800Z,7
2017-04-10T02:59:28.820Z,6.86
2017-04-10T03:00:28.872Z,6.9
2017-04-10T03:01:28.903Z,6.85
2017-04-10T03:02:28.910Z,6.98
2017-04-10T03:03:28.962Z,6.94
2017-04-10T03:04:28.984Z,6.94
2017-04-10T03:05:29.024Z,6.88
2017-04-10T03:06:29.022Z,6.78
2017-04-10T03:07:29.073Z,6.83
2017-04-10T03:08:29.103Z,6.75
2017-04-10T03:09:29.124Z,6.72
2017-04-10T03:10:29.162Z,6.65
2017-04-10T03:11:29.193Z,6.67
2017-04-10T03:12:29.195Z,6.58
2017-04-10T03:13:29.235Z,6.58
2017-04-10T03:14:29.277Z,6.58
2017-04-10T03:15:29.301Z,6.62
2017-04-10T03:16:29.291Z,6.49
2017-04-10T03:17:29.361Z,6.54
2017-04-10T03:18:29.386Z,6.42
2017-04-10T03:19:29.415Z,6.4
2017-04-10T03:20:29.434Z,6.42
2017-04-10T03:21:29.477Z,6.39
2017-04-10T03:22:29.506Z,6.39
2017-04-10T03:23:29.502Z,6.39
2017-04-10T03:24:29.574Z,6.4
2017-04-10T03:25:29.585Z,6.24
2017-04-10T03:26:29.622Z,6.26
2017-04-10T03:27:29.635Z,6.34
2017-04-10T03:28:29.677Z,6.31
2017-04-10T03:29:29.714Z,6.25
2017-04-10T03:30:29.719Z,6.26
2017-04-10T03:31:29.755Z,6.28
2017-04-10T03:32:29.770Z,6.25
2017-04-10T03:33:29.800Z,6.17
2017-04-10T03:34:29.833Z,6.18
2017-04-10T03:35:29.875Z,6.15
2017-04-10T03:36:29.896Z,6.14
2017-04-10T03:37:29.931Z,6.17
2017-04-10T03:38:29.944Z,6.18
2017-04-10T03:39:29.980Z,6.21
2017-04-10T03:40:30.030Z,6.18
2017-04-10T03:41:30.013Z,6.2
2017-04-10T03:42:30.067Z,6.18
2017-04-10T03:43:30.100Z,6.18
2017-04-10T03:44:30.104Z,6.14
2017-04-10T03:45:30.166Z,6.17
2017-04-10T03:46:30.180Z,6.21
2017-04-10T03:47:30.220Z,6.14
2017-04-10T03:48:30.223Z,6.13
2017-04-10T03:49:30.266Z,6.09
2017-04-10T03:50:30.289Z,6.1
2017-04-10T03:51:30.316Z,6.09
2017-04-10T03:52:30.335Z,6.2
2017-04-10T03:53:30.376Z,6.15
2017-04-10T03:54:30.419Z,6.17
2017-04-10T03:55:30.435Z,6.17
2017-04-10T03:56:30.469Z,6.2
2017-04-10T03:57:30.505Z,6.09
2017-04-10T03:58:30.525Z,6.15
2017-04-10T03:59:30.549Z,6.13
2017-04-10T04:00:30.604Z,6.24
2017-04-10T04:01:30.611Z,6.18
2017-04-10T04:02:30.629Z,6.17
2017-04-10T04:03:30.663Z,6.14
2017-04-10T04:04:30.700Z,6.03
2017-04-10T04:05:30.873Z,6.06
2017-04-10T04:06:30.743Z,6.06
2017-04-10T04:07:30.780Z,6.09
2017-04-10T04:08:30.810Z,6.09
2017-04-10T04:09:30.836Z,6.14
2017-04-10T04:10:30.860Z,6.14
2017-04-10T04:11:30.891Z,6.17
2017-04-10T04:12:30.927Z,6.15
2017-04-10T04:13:30.933Z,6.1
2017-04-10T04:14:30.952Z,6.18
2017-04-10T04:15:31.010Z,6.07
2017-04-10T04:16:31.037Z,6.09
2017-04-10T04:17:31.050Z,6.17
2017-04-10T04:18:31.073Z,6.09
2017-04-10T04:19:31.119Z,6.17
2017-04-10T04:20:31.145Z,6.17
2017-04-10T04:21:31.165Z,6.14
2017-04-10T04:22:31.212Z,6.17
2017-04-10T04:23:31.238Z,6.24
2017-04-10T04:24:31.243Z,6.21
2017-04-10T04:25:31.293Z,6.21
2017-04-10T04:26:31.329Z,6.17
2017-04-10T04:27:31.349Z,6.28
2017-04-10T04:28:31.366Z,6.33
2017-04-10T04:29:31.419Z,6.43
2017-04-10T04:30:31.435Z,6.42
2017-04-10T04:31:31.468Z,6.37
2017-04-10T04:32:31.498Z,6.36
2017-04-10T04:33:31.521Z,6.43
2017-04-10T04:34:31.552Z,6.47
2017-04-10T04:35:31.563Z,6.44
2017-04-10T04:36:31.605Z,6.54
2017-04-10T04:37:31.638Z,6.46
2017-04-10T04:38:31.666Z,6.6
2017-04-10T04:39:31.685Z,6.58
2017-04-10T04:40:31.718Z,6.65
2017-04-10T04:41:31.747Z,6.61
2017-04-10T04:42:31.775Z,6.58
2017-04-10T04:43:31.836Z,6.73
2017-04-10T04:44:31.840Z,6.7
2017-04-10T04:45:31.864Z,6.62
2017-04-10T04:46:31.894Z,6.58
2017-04-10T04:47:31.924Z,6.68
2017-04-10T04:48:31.933Z,6.75
2017-04-10T04:49:31.964Z,6.72
2017-04-10T04:50:32.007Z,6.67
2017-04-10T04:51:32.032Z,6.79
2017-04-10T04:52:32.052Z,6.83
2017-04-10T04:53:32.086Z,6.86
2017-04-10T04:54:32.106Z,6.93
2017-04-10T04:55:32.135Z,6.94
2017-04-10T04:56:32.171Z,7.04
2017-04-10T04:57:32.209Z,7
2017-04-10T04:58:32.225Z,7.05
2017-04-10T04:59:32.246Z,6.95
2017-04-10T05:00:32.296Z,7.01
2017-04-10T05:01:32.297Z,7.12
2017-04-10T05:02:32.353Z,7.15
2017-04-10T05:03:32.370Z,7.08
2017-04-10T05:04:32.404Z,7.21
2017-04-10T05:05:32.437Z,7.31
2017-04-10T05:06:32.467Z,7.21
2017-04-10T05:07:32.486Z,7.3
2017-04-10T05:08:32.509Z,7.36
2017-04-10T05:09:32.557Z,7.45
2017-04-10T05:10:32.554Z,7.37
2017-04-10T05:11:32.631Z,7.44
2017-04-10T05:12:32.643Z,7.56
2017-04-10T05:13:32.626Z,7.52
2017-04-10T05:14:32.700Z,7.52
2017-04-10T05:15:32.729Z,7.56
2017-04-10T05:16:32.747Z,7.58
2017-04-10T05:17:32.765Z,7.67
2017-04-10T05:18:32.817Z,7.75
2017-04-10T05:19:32.835Z,7.71
2017-04-10T05:20:32.898Z,7.78
2017-04-10T05:21:32.906Z,7.71
2017-04-10T05:22:32.932Z,7.78
2017-04-10T05:23:32.977Z,7.83
2017-04-10T05:24:32.944Z,7.8
2017-04-10T05:25:33.119Z,7.96
2017-04-10T05:26:33.048Z,7.93
2017-04-10T05:27:33.083Z,8.07
2017-04-10T05:28:33.103Z,8.07
2017-04-10T05:29:33.130Z,8.17
2017-04-10T05:30:33.152Z,8.1
2017-04-10T05:31:33.184Z,8.28
2017-04-10T05:32:33.204Z,8.32
2017-04-10T05:33:33.250Z,8.43
2017-04-10T05:34:33.296Z,8.47
2017-04-10T05:35:33.305Z,8.5
2017-04-10T05:36:33.344Z,8.6
2017-04-10T05:37:33.366Z,8.61
2017-04-10T05:38:33.406Z,8.72
2017-04-10T05:39:33.409Z,8.72
2017-04-10T05:40:33.453Z,8.9
2017-04-10T05:41:33.481Z,9.04
2017-04-10T05:42:33.520Z,9.38
2017-04-10T05:43:33.545Z,9.72
2017-04-10T05:44:33.558Z,9.84
2017-04-10T05:45:33.610Z,10.02
2017-04-10T05:46:33.610Z,10.31
2017-04-10T05:47:33.964Z,10.98
2017-04-10T05:48:33.663Z,11.68
2017-04-10T05:49:33.727Z,12.44
2017-04-10T05:50:33.734Z,13.07
2017-04-10T05:51:33.784Z,13.7
2017-04-10T05:52:33.967Z,14.39
2017-04-10T05:53:33.850Z,14.79
2017-04-10T05:54:33.880Z,15.2
2017-04-10T05:55:33.911Z,15.78
2017-04-10T05:56:33.937Z,16.32
2017-04-10T05:57:34.109Z,16.91
2017-04-10T05:58:33.987Z,17.45
2017-04-10T05:59:34.052Z,17.83
2017-04-10T06:00:34.070Z,17.74
2017-04-10T06:01:34.094Z,18.02
2017-04-10T06:02:34.136Z,18.2
2017-04-10T06:03:34.164Z,18.23
2017-04-10T06:04:34.201Z,18.57
2017-04-10T06:05:34.233Z,18.61
2017-04-10T06:06:34.276Z,18.86
2017-04-10T06:07:34.307Z,19.19
2017-04-10T06:08:34.340Z,19.27
2017-04-10T06:09:34.354Z,19.56
2017-04-10T06:10:34.399Z,19.8
2017-04-10T06:11:34.452Z,20.05
2017-04-10T06:12:34.442Z,20.46
2017-04-10T06:13:34.494Z,20.83
2017-04-10T06:14:34.531Z,21.25
2017-04-10T06:15:34.581Z,21.18
2017-04-10T06:16:34.599Z,21.31
2017-04-10T06:17:34.649Z,21.3
2017-04-10T06:18:34.663Z,21.21
2017-04-10T06:19:34.714Z,21.46
2017-04-10T06:20:34.749Z,21.67
2017-04-10T06:21:34.796Z,21.74
2017-04-10T06:22:34.806Z,21.55
2017-04-10T06:23:34.863Z,21.45
2017-04-10T06:24:34.903Z,21.27
2017-04-10T06:25:34.939Z,21.18
2017-04-10T06:26:34.968Z,21.3
2017-04-10T06:27:34.990Z,21.67
2017-04-10T06:28:35.049Z,22.12
2017-04-10T06:29:35.074Z,22.41
2017-04-10T06:30:35.119Z,22.78
2017-04-10T06:31:35.148Z,23.09
2017-04-10T06:32:35.198Z,23.45
2017-04-10T06:33:35.326Z,23.85
2017-04-10T06:34:35.268Z,24.27
2017-04-10T06:35:35.308Z,24.51
2017-04-10T06:36:35.320Z,24.93
2017-04-10T06:37:35.383Z,25.27
2017-04-10T06:38:35.669Z,25.54
2017-04-10T06:39:35.451Z,25.76
2017-04-10T06:40:35.493Z,26.06
2017-04-10T06:41:35.528Z,26.11
2017-04-10T06:42:35.573Z,26.04
2017-04-10T06:43:35.617Z,26.11
2017-04-10T06:44:35.645Z,26.07
2017-04-10T06:45:35.691Z,26.03
2017-04-10T06:46:35.708Z,26.23
2017-04-10T06:47:35.758Z,26.52
2017-04-10T06:48:35.793Z,26.69
2017-04-10T06:49:35.845Z,26.94
2017-04-10T06:50:35.859Z,27.26
2017-04-10T06:51:35.927Z,27.53
2017-04-10T06:52:35.953Z,27.94
2017-04-10T06:53:36.000Z,28.2
2017-04-10T06:54:36.039Z,28.46
2017-04-10T06:55:36.076Z,28.42
2017-04-10T06:56:36.114Z,28.31
2017-04-10T06:57:36.155Z,28.35
2017-04-10T06:58:36.187Z,28.49
2017-04-10T06:59:36.272Z,28.78
2017-04-10T07:00:36.272Z,28.76
2017-04-10T07:01:36.314Z,29.02
2017-04-10T07:02:36.365Z,29.28
2017-04-10T07:03:36.368Z,29.54
2017-04-10T07:04:36.411Z,29.58
2017-04-10T07:05:36.446Z,29.82
2017-04-10T07:06:36.503Z,29.84
2017-04-10T07:07:36.557Z,29.88
2017-04-10T07:08:36.628Z,29.85
2017-04-10T07:09:36.634Z,29.77
2017-04-10T07:10:36.644Z,29.91
2017-04-10T07:11:36.709Z,29.97
2017-04-10T07:12:36.738Z,30.11
2017-04-10T07:13:36.782Z,30.24
2017-04-10T07:14:36.828Z,30.26
2017-04-10T07:15:36.869Z,30.26
2017-04-10T07:16:36.906Z,30.25
2017-04-10T07:17:36.939Z,30.39
2017-04-10T07:18:37.009Z,30.45
2017-04-10T07:19:37.030Z,30.63
2017-04-10T07:20:37.069Z,30.69
2017-04-10T07:21:37.115Z,30.45
2017-04-10T07:22:37.132Z,30.57
2017-04-10T07:23:37.189Z,30.6
2017-04-10T07:24:37.228Z,30.88
2017-04-10T07:25:37.576Z,31.06
2017-04-10T07:26:37.319Z,31.21
2017-04-10T07:27:37.353Z,31.38
2017-04-10T07:28:37.435Z,31.59
2017-04-10T07:29:37.431Z,31.6
2017-04-10T07:30:37.456Z,31.78
2017-04-10T07:31:37.522Z,31.94
2017-04-10T07:32:37.550Z,32.03
2017-04-10T07:33:37.599Z,32.1
2017-04-10T07:34:37.638Z,32.27
2017-04-10T07:35:37.683Z,32.15
2017-04-10T07:36:37.753Z,32.13
2017-04-10T07:37:37.747Z,32.16
2017-04-10T07:38:37.810Z,32.01
2017-04-10T07:39:37.830Z,32.1
2017-04-10T07:40:37.888Z,32.16
2017-04-10T07:41:37.937Z,32.23
2017-04-10T07:42:37.963Z,32.39
2017-04-10T07:43:38.022Z,32.46
2017-04-10T07:44:38.043Z,32.64
2017-04-10T07:45:38.103Z,32.96
2017-04-10T07:46:38.141Z,33.2
2017-04-10T07:47:38.174Z,33.31
2017-04-10T07:48:38.235Z,33.56
2017-04-10T07:49:38.268Z,33.53
2017-04-10T07:50:38.318Z,33.74
2017-04-10T07:51:38.355Z,33.9
2017-04-10T07:52:38.399Z,33.95
2017-04-10T07:53:38.443Z,33.96
2017-04-10T07:54:38.484Z,34.21
2017-04-10T07:55:38.536Z,34.21
2017-04-10T07:56:38.569Z,34.21
2017-04-10T07:57:38.658Z,34.24
2017-04-10T07:58:38.630Z,34.14
2017-04-10T07:59:38.696Z,34.21
2017-04-10T08:00:38.733Z,34.26
2017-04-10T08:01:38.786Z,34.45
2017-04-10T08:02:38.830Z,34.71
2017-04-10T08:03:38.868Z,35.02
2017-04-10T08:04:38.917Z,35.26
2017-04-10T08:05:38.943Z,35.31
2017-04-10T08:06:39.014Z,35.35
2017-04-10T08:07:39.046Z,35.24
2017-04-10T08:08:39.100Z,35.02
2017-04-10T08:09:39.141Z,34.78
2017-04-10T08:10:39.187Z,34.55
2017-04-10T08:11:39.363Z,34.61
2017-04-10T08:12:39.255Z,34.79
2017-04-10T08:13:39.320Z,34.96
2017-04-10T08:14:39.359Z,34.96
2017-04-10T08:15:39.410Z,34.94
2017-04-10T08:16:39.548Z,34.91
2017-04-10T08:17:39.495Z,35.06
2017-04-10T08:18:39.533Z,35.08
2017-04-10T08:19:39.571Z,34.83
2017-04-10T08:20:39.627Z,34.72
2017-04-10T08:21:39.676Z,34.56
2017-04-10T08:22:39.720Z,34.78
2017-04-10T08:23:39.755Z,34.93
2017-04-10T08:24:39.805Z,34.81
2017-04-10T08:25:39.841Z,35.02
2017-04-10T08:26:40.045Z,35.09
2017-04-10T08:27:39.945Z,34.86
2017-04-10T08:28:39.986Z,34.93
2017-04-10T08:29:40.032Z,35.01
2017-04-10T08:30:40.073Z,34.84
2017-04-10T08:31:40.128Z,34.87
2017-04-10T08:32:40.162Z,34.89
2017-04-10T08:33:40.217Z,34.75
2017-04-10T08:34:40.256Z,34.75
2017-04-10T08:35:40.301Z,34.56
2017-04-10T08:36:40.359Z,34.66
2017-04-10T08:37:40.398Z,35.02
2017-04-10T08:38:40.442Z,35.33
2017-04-10T08:39:40.486Z,35.61
2017-04-10T08:40:40.570Z,36.01
2017-04-10T08:41:40.580Z,36.14
2017-04-10T08:42:40.632Z,35.96
2017-04-10T08:43:40.662Z,36.21
2017-04-10T08:44:40.707Z,36.28
2017-04-10T08:45:40.763Z,36.46
2017-04-10T08:46:40.810Z,36.65
2017-04-10T08:47:40.855Z,36.62
2017-04-10T08:48:40.885Z,36.51
2017-04-10T08:49:40.948Z,36.47
2017-04-10T08:50:41.002Z,36.44
2017-04-10T08:51:41.033Z,36.24
2017-04-10T08:52:41.102Z,36.12
2017-04-10T08:53:41.122Z,35.99
2017-04-10T08:54:41.182Z,36.01
2017-04-10T08:55:41.227Z,35.84
2017-04-10T08:56:41.242Z,35.72
2017-04-10T08:57:41.333Z,35.74
2017-04-10T08:58:41.362Z,35.8
2017-04-10T08:59:41.413Z,35.57
2017-04-10T09:00:41.468Z,35.26
2017-04-10T09:01:41.510Z,35.11
2017-04-10T09:02:41.658Z,34.96
2017-04-10T09:03:41.605Z,35.09
2017-04-10T09:04:41.647Z,35.2
2017-04-10T09:05:41.699Z,35.67
2017-04-10T09:06:41.744Z,35.99
2017-04-10T09:07:41.876Z,36.22
2017-04-10T09:08:41.845Z,36.22
2017-04-10T09:09:41.881Z,36.41
2017-04-10T09:10:41.927Z,36.36
2017-04-10T09:11:41.966Z,36.34
2017-04-10T09:12:42.175Z,36.37
2017-04-10T09:13:42.064Z,36.28
2017-04-10T09:14:42.166Z,36.37
2017-04-10T09:15:42.170Z,36.63
2017-04-10T09:16:42.221Z,36.96
2017-04-10T09:17:42.263Z,37.23
2017-04-10T09:18:42.309Z,37.56
2017-04-10T09:19:42.363Z,37.72
2017-04-10T09:20:42.404Z,37.64
2017-04-10T09:21:42.458Z,37.65
2017-04-10T09:22:42.512Z,37.46
2017-04-10T09:23:42.557Z,37.57
2017-04-10T09:24:42.603Z,37.57
2017-04-10T09:25:42.635Z,37.37
2017-04-10T09:26:42.674Z,37.29
2017-04-10T09:27:42.739Z,37.45
2017-04-10T09:28:42.771Z,37.91
2017-04-10T09:29:42.842Z,38.37
2017-04-10T09:30:42.889Z,38.77
2017-04-10T09:31:42.936Z,38.87
2017-04-10T09:32:42.943Z,39.08
2017-04-10T09:33:43.022Z,39.04
2017-04-10T09:34:43.089Z,38.87
2017-04-10T09:35:43.142Z,38.65
2017-04-10T09:36:43.165Z,38.35
2017-04-10T09:37:43.229Z,37.96
2017-04-10T09:38:43.273Z,37.19
2017-04-10T09:39:43.331Z,36.49
2017-04-10T09:40:43.371Z,35.87
2017-04-10T09:41:43.437Z,35.67
2017-04-10T09:42:43.471Z,35.84
2017-04-10T09:43:43.515Z,36.04
2017-04-10T09:44:43.569Z,36.14
2017-04-10T09:45:43.616Z,36.34
2017-04-10T09:46:43.665Z,36.58
2017-04-10T09:47:43.720Z,36.52
2017-04-10T09:48:43.750Z,36.71
2017-04-10T09:49:43.814Z,36.9
2017-04-10T09:50:43.865Z,37.17
2017-04-10T09:51:43.907Z,37.22
2017-04-10T09:52:43.961Z,37.27
2017-04-10T09:53:44.005Z,37.29
2017-04-10T09:54:44.062Z,37.09
2017-04-10T09:55:44.106Z,36.51
2017-04-10T09:56:44.154Z,35.77
2017-04-10T09:57:44.205Z,35.3
2017-04-10T09:58:44.252Z,34.52
2017-04-10T09:59:44.284Z,34.55
2017-04-10T10:00:44.345Z,34.41
2017-04-10T10:01:44.387Z,34.24
2017-04-10T10:02:44.438Z,33.66
2017-04-10T10:03:44.486Z,32.65
2017-04-10T10:04:44.506Z,32.13
2017-04-10T10:05:44.570Z,32.13
2017-04-10T10:06:44.629Z,32.35
2017-04-10T10:07:44.673Z,32.39
2017-04-10T10:08:44.727Z,32.37
2017-04-10T10:09:44.761Z,32.49
2017-04-10T10:10:44.811Z,32.37
2017-04-10T10:11:44.856Z,32.32
2017-04-10T10:12:44.897Z,32.52
2017-04-10T10:13:44.939Z,32.79
2017-04-10T10:14:45.012Z,32.65
2017-04-10T10:15:45.053Z,32.25
2017-04-10T10:16:45.084Z,32.05
2017-04-10T10:17:45.137Z,31.38
2017-04-10T10:18:45.144Z,31.12
2017-04-10T10:19:45.216Z,31.1
2017-04-10T10:20:45.267Z,31.07
2017-04-10T10:21:45.304Z,31.19
2017-04-10T10:22:45.359Z,31.19
2017-04-10T10:23:45.383Z,31.3
2017-04-10T10:24:45.449Z,31.62
2017-04-10T10:25:45.483Z,32
2017-04-10T10:26:45.537Z,32.56
2017-04-10T10:27:45.567Z,32.96
2017-04-10T10:28:45.619Z,32.81
2017-04-10T10:29:45.661Z,32.39
2017-04-10T10:30:45.709Z,32.37
2017-04-10T10:31:45.739Z,32.79
2017-04-10T10:32:45.767Z,33.05
2017-04-10T10:33:45.828Z,33.08
2017-04-10T10:34:45.872Z,32.72
2017-04-10T10:35:45.913Z,32.46
2017-04-10T10:36:45.967Z,32.25
2017-04-10T10:37:46.002Z,32.16
2017-04-10T10:38:46.050Z,31.88
2017-04-10T10:39:46.109Z,31.37
2017-04-10T10:40:46.134Z,30.86
2017-04-10T10:41:46.155Z,30.29
2017-04-10T10:42:46.204Z,29.73
2017-04-10T10:43:46.242Z,29.29
2017-04-10T10:44:46.303Z,28.58
2017-04-10T10:45:46.337Z,28.12
2017-04-10T10:46:46.364Z,27.91
2017-04-10T10:47:46.416Z,27.93
2017-04-10T10:48:46.466Z,28.11
2017-04-10T10:49:46.506Z,28.6
2017-04-10T10:50:46.560Z,29.05
2017-04-10T10:51:46.579Z,28.98
2017-04-10T10:52:46.632Z,28.58
2017-04-10T10:53:46.658Z,28.38
2017-04-10T10:54:46.719Z,28.14
2017-04-10T10:55:46.755Z,27.91
2017-04-10T10:56:46.799Z,27.66
2017-04-10T10:57:46.839Z,27.59
2017-04-10T10:58:46.889Z,27.94
2017-04-10T10:59:46.927Z,28.65
2017-04-10T11:00:46.967Z,29.13
2017-04-10T11:01:46.986Z,29.58
2017-04-10T11:02:47.088Z,30.24
2017-04-10T11:03:47.091Z,30.44
2017-04-10T11:04:47.132Z,30.48
2017-04-10T11:05:47.175Z,30.6
2017-04-10T11:06:47.207Z,30.32
2017-04-10T11:07:47.258Z,30.19
2017-04-10T11:08:47.287Z,29.88
2017-04-10T11:09:47.332Z,29.76
2017-04-10T11:10:47.364Z,29.35
2017-04-10T11:11:47.409Z,28.97
2017-04-10T11:12:47.441Z,28.55
2017-04-10T11:13:47.474Z,28.46
2017-04-10T11:14:47.532Z,28.43
2017-04-10T11:15:47.569Z,28.43
2017-04-10T11:16:47.614Z,28.6
2017-04-10T11:17:47.654Z,28.83
2017-04-10T11:18:47.688Z,29.18
2017-04-10T11:19:47.729Z,29.58
2017-04-10T11:20:47.769Z,29.67
2017-04-10T11:21:47.812Z,29.57
2017-04-10T11:22:47.853Z,29.58
2017-04-10T11:23:47.928Z,29.24
2017-04-10T11:24:47.930Z,29.29
2017-04-10T11:25:47.982Z,29.15
2017-04-10T11:26:48.017Z,29.14
2017-04-10T11:27:48.053Z,28.86
2017-04-10T11:28:48.083Z,28.49
2017-04-10T11:29:48.130Z,28.36
2017-04-10T11:30:48.152Z,28.54
2017-04-10T11:31:48.211Z,28.39
2017-04-10T11:32:48.232Z,28.38
2017-04-10T11:33:48.323Z,28.05
2017-04-10T11:34:48.324Z,27.34
2017-04-10T11:35:48.364Z,26.76
2017-04-10T11:36:48.403Z,26.68
2017-04-10T11:37:48.450Z,26.72
2017-04-10T11:38:48.488Z,27.21
2017-04-10T11:39:48.529Z,27.13
2017-04-10T11:40:48.565Z,26.9
2017-04-10T11:41:48.613Z,26.57
2017-04-10T11:42:48.653Z,26.04
2017-04-10T11:43:48.682Z,25.69
2017-04-10T11:44:48.728Z,25.07
2017-04-10T11:45:48.759Z,24.75
2017-04-10T11:46:48.808Z,24.48
2017-04-10T11:47:48.848Z,24.08
2017-04-10T11:48:48.884Z,23.78
2017-04-10T11:49:48.927Z,23.62
2017-04-10T11:50:48.942Z,23.26
2017-04-10T11:51:49.009Z,23.03
2017-04-10T11:52:49.046Z,22.82
2017-04-10T11:53:49.080Z,22.78
2017-04-10T11:54:49.103Z,22.82
2017-04-10T11:55:49.145Z,23.04
2017-04-10T11:56:49.202Z,23.14
2017-04-10T11:57:49.232Z,23.25
2017-04-10T11:58:49.264Z,23.35
2017-04-10T11:59:49.314Z,23.25
2017-04-10T12:00:49.399Z,23.09
2017-04-10T12:01:49.379Z,22.64
2017-04-10T12:02:49.433Z,22.51
2017-04-10T12:03:49.459Z,22.41
2017-04-10T12:04:49.497Z,22.3
2017-04-10T12:05:49.535Z,22.2
2017-04-10T12:06:49.594Z,22.14
2017-04-10T12:07:49.626Z,22.14
2017-04-10T12:08:49.657Z,22.07
2017-04-10T12:09:49.667Z,22.02
2017-04-10T12:10:49.749Z,22.05
2017-04-10T12:11:49.788Z,22.15
2017-04-10T12:12:49.823Z,21.92
2017-04-10T12:13:49.862Z,21.74
2017-04-10T12:14:49.899Z,21.68
2017-04-10T12:15:49.936Z,21.48
2017-04-10T12:16:49.978Z,21.23
2017-04-10T12:17:50.003Z,20.93
2017-04-10T12:18:50.036Z,20.72
2017-04-10T12:19:50.096Z,20.63
2017-04-10T12:20:50.128Z,20.57
2017-04-10T12:21:50.161Z,20.51
2017-04-10T12:22:50.233Z,20.58
2017-04-10T12:23:50.251Z,20.61
2017-04-10T12:24:50.261Z,20.76
2017-04-10T12:25:50.321Z,20.86
2017-04-10T12:26:50.354Z,20.79
2017-04-10T12:27:50.402Z,20.79
2017-04-10T12:28:50.437Z,20.72
2017-04-10T12:29:50.482Z,20.74
2017-04-10T12:30:50.521Z,20.79
2017-04-10T12:31:50.552Z,20.98
2017-04-10T12:32:50.572Z,21.03
2017-04-10T12:33:50.609Z,20.98
2017-04-10T12:34:50.662Z,20.94
2017-04-10T12:35:50.707Z,20.74
2017-04-10T12:36:50.745Z,20.49
2017-04-10T12:37:50.779Z,20.44
2017-04-10T12:38:50.818Z,20.38
2017-04-10T12:39:50.859Z,20.4
2017-04-10T12:40:50.898Z,20.34
2017-04-10T12:41:50.931Z,20.22
2017-04-10T12:42:50.959Z,20.05
2017-04-10T12:43:50.973Z,19.93
2017-04-10T12:44:51.033Z,19.92
2017-04-10T12:45:51.065Z,19.8
2017-04-10T12:46:51.120Z,19.87
2017-04-10T12:47:51.144Z,19.93
2017-04-10T12:48:51.195Z,19.98
2017-04-10T12:49:51.239Z,19.86
2017-04-10T12:50:51.251Z,19.79
2017-04-10T12:51:51.299Z,19.87
2017-04-10T12:52:51.349Z,19.92
2017-04-10T12:53:51.378Z,19.95
2017-04-10T12:54:51.444Z,20.07
2017-04-10T12:55:51.455Z,20.08
2017-04-10T12:56:51.472Z,20.16
2017-04-10T12:57:51.526Z,20.35
2017-04-10T12:58:51.530Z,20.34
2017-04-10T12:59:51.608Z,20.46
2017-04-10T13:00:51.648Z,20.53
2017-04-10T13:01:51.674Z,20.6
2017-04-10T13:02:51.722Z,20.4
2017-04-10T13:03:51.750Z,20.41
2017-04-10T13:04:51.792Z,20.3
2017-04-10T13:05:51.829Z,20.08
2017-04-10T13:06:51.853Z,19.9